sensor_id;sensor_type;location;lat;lon;timestamp;P1;durP1;ratioP1;P2;durP2;ratioP2
68178;SDS011;54998;42.656;23.382;2023-02-02T00:01:23;3.08;;;1.40;;
68178;SDS011;54998;42.656;23.382;2023-02-02T00:03:49;2.47;;;1.45;;
68178;SDS011;54998;42.656;23.382;2023-02-02T00:06:18;2.28;;;1.00;;
68178;SDS011;54998;42.656;23.382;2023-02-02T00:08:45;3.17;;;1.58;;
68178;SDS011;54998;42.656;23.382;2023-02-02T00:11:10;3.35;;;1.48;;
68178;SDS011;54998;42.656;23.382;2023-02-02T00:13:36;2.70;;;1.58;;
68178;SDS011;54998;42.656;23.382;2023-02-02T00:18:47;3.58;;;1.80;;
68178;SDS011;54998;42.656;23.382;2023-02-02T00:21:12;4.93;;;2.00;;
68178;SDS011;54998;42.656;23.382;2023-02-02T00:23:38;4.82;;;1.85;;
68178;SDS011;54998;42.656;23.382;2023-02-02T00:26:03;2.95;;;1.27;;
68178;SDS011;54998;42.656;23.382;2023-02-02T00:28:29;3.20;;;1.73;;
68178;SDS011;54998;42.656;23.382;2023-02-02T00:30:54;3.40;;;1.55;;
68178;SDS011;54998;42.656;23.382;2023-02-02T00:33:19;4.72;;;2.00;;
68178;SDS011;54998;42.656;23.382;2023-02-02T00:35:45;5.53;;;1.80;;
68178;SDS011;54998;42.656;23.382;2023-02-02T00:38:10;4.80;;;2.45;;
68178;SDS011;54998;42.656;23.382;2023-02-02T00:40:35;3.05;;;1.75;;
68178;SDS011;54998;42.656;23.382;2023-02-02T00:43:01;2.33;;;1.67;;
68178;SDS011;54998;42.656;23.382;2023-02-02T00:45:26;2.55;;;1.77;;
68178;SDS011;54998;42.656;23.382;2023-02-02T00:47:51;7.55;;;2.13;;
68178;SDS011;54998;42.656;23.382;2023-02-02T00:50:18;5.00;;;1.60;;
68178;SDS011;54998;42.656;23.382;2023-02-02T00:52:45;3.85;;;2.38;;
68178;SDS011;54998;42.656;23.382;2023-02-02T00:55:12;5.22;;;1.77;;
68178;SDS011;54998;42.656;23.382;2023-02-02T00:57:38;4.97;;;1.73;;
68178;SDS011;54998;42.656;23.382;2023-02-02T01:00:06;3.55;;;1.40;;
68178;SDS011;54998;42.656;23.382;2023-02-02T01:02:33;4.68;;;2.00;;
68178;SDS011;54998;42.656;23.382;2023-02-02T01:04:59;4.95;;;2.50;;
68178;SDS011;54998;42.656;23.382;2023-02-02T01:07:25;2.50;;;1.05;;
68178;SDS011;54998;42.656;23.382;2023-02-02T01:09:51;3.05;;;1.48;;
68178;SDS011;54998;42.656;23.382;2023-02-02T01:12:16;4.85;;;1.63;;
68178;SDS011;54998;42.656;23.382;2023-02-02T01:14:41;4.57;;;1.98;;
68178;SDS011;54998;42.656;23.382;2023-02-02T01:17:07;2.42;;;1.00;;
68178;SDS011;54998;42.656;23.382;2023-02-02T01:19:33;5.13;;;1.80;;
68178;SDS011;54998;42.656;23.382;2023-02-02T01:21:58;4.10;;;1.90;;
68178;SDS011;54998;42.656;23.382;2023-02-02T01:24:24;4.43;;;1.60;;
68178;SDS011;54998;42.656;23.382;2023-02-02T01:26:49;1.60;;;1.50;;
68178;SDS011;54998;42.656;23.382;2023-02-02T01:29:14;3.03;;;1.88;;
68178;SDS011;54998;42.656;23.382;2023-02-02T01:31:40;10.55;;;2.30;;
68178;SDS011;54998;42.656;23.382;2023-02-02T01:34:06;4.20;;;2.45;;
68178;SDS011;54998;42.656;23.382;2023-02-02T01:36:32;4.95;;;3.00;;
68178;SDS011;54998;42.656;23.382;2023-02-02T01:38:57;4.15;;;2.20;;
68178;SDS011;54998;42.656;23.382;2023-02-02T01:41:24;6.38;;;3.33;;
68178;SDS011;54998;42.656;23.382;2023-02-02T01:43:51;5.32;;;2.42;;
68178;SDS011;54998;42.656;23.382;2023-02-02T01:46:22;6.28;;;3.25;;
68178;SDS011;54998;42.656;23.382;2023-02-02T01:49:04;5.95;;;2.80;;
68178;SDS011;54998;42.656;23.382;2023-02-02T01:51:39;6.63;;;2.88;;
68178;SDS011;54998;42.656;23.382;2023-02-02T01:54:08;4.18;;;2.45;;
68178;SDS011;54998;42.656;23.382;2023-02-02T01:56:40;9.57;;;3.70;;
68178;SDS011;54998;42.656;23.382;2023-02-02T01:59:09;8.15;;;3.65;;
68178;SDS011;54998;42.656;23.382;2023-02-02T02:01:38;6.00;;;2.28;;
68178;SDS011;54998;42.656;23.382;2023-02-02T02:04:04;7.35;;;3.88;;
68178;SDS011;54998;42.656;23.382;2023-02-02T02:06:29;10.50;;;4.07;;
68178;SDS011;54998;42.656;23.382;2023-02-02T02:08:58;6.28;;;3.58;;
68178;SDS011;54998;42.656;23.382;2023-02-02T02:11:28;5.78;;;3.00;;
68178;SDS011;54998;42.656;23.382;2023-02-02T02:13:55;5.80;;;2.67;;
68178;SDS011;54998;42.656;23.382;2023-02-02T02:17:02;7.68;;;2.85;;
68178;SDS011;54998;42.656;23.382;2023-02-02T02:34:35;5.95;;;2.47;;
68178;SDS011;54998;42.656;23.382;2023-02-02T02:39:47;3.50;;;2.20;;
68178;SDS011;54998;42.656;23.382;2023-02-02T02:42:21;7.22;;;2.90;;
68178;SDS011;54998;42.656;23.382;2023-02-02T02:44:49;4.18;;;2.53;;
68178;SDS011;54998;42.656;23.382;2023-02-02T02:47:17;9.07;;;3.60;;
68178;SDS011;54998;42.656;23.382;2023-02-02T02:49:45;5.25;;;2.60;;
68178;SDS011;54998;42.656;23.382;2023-02-02T02:52:11;6.93;;;3.03;;
68178;SDS011;54998;42.656;23.382;2023-02-02T02:54:48;6.47;;;2.72;;
68178;SDS011;54998;42.656;23.382;2023-02-02T03:03:40;6.18;;;3.00;;
68178;SDS011;54998;42.656;23.382;2023-02-02T03:06:28;3.33;;;1.42;;
68178;SDS011;54998;42.656;23.382;2023-02-02T03:09:14;2.47;;;1.50;;
68178;SDS011;54998;42.656;23.382;2023-02-02T03:11:44;5.45;;;2.42;;
68178;SDS011;54998;42.656;23.382;2023-02-02T03:14:10;6.22;;;3.35;;
68178;SDS011;54998;42.656;23.382;2023-02-02T03:16:40;5.50;;;2.45;;
68178;SDS011;54998;42.656;23.382;2023-02-02T03:19:05;5.30;;;2.28;;
68178;SDS011;54998;42.656;23.382;2023-02-02T03:21:34;8.50;;;3.40;;
68178;SDS011;54998;42.656;23.382;2023-02-02T03:24:02;4.18;;;2.22;;
68178;SDS011;54998;42.656;23.382;2023-02-02T03:26:30;6.28;;;2.88;;
68178;SDS011;54998;42.656;23.382;2023-02-02T03:29:15;5.90;;;2.83;;
68178;SDS011;54998;42.656;23.382;2023-02-02T03:31:42;3.53;;;1.88;;
68178;SDS011;54998;42.656;23.382;2023-02-02T03:34:07;5.18;;;2.40;;
68178;SDS011;54998;42.656;23.382;2023-02-02T03:36:32;3.47;;;1.65;;
68178;SDS011;54998;42.656;23.382;2023-02-02T03:38:58;6.88;;;2.25;;
68178;SDS011;54998;42.656;23.382;2023-02-02T03:41:25;3.97;;;2.40;;
68178;SDS011;54998;42.656;23.382;2023-02-02T03:43:53;6.60;;;3.80;;
68178;SDS011;54998;42.656;23.382;2023-02-02T03:46:19;5.75;;;3.08;;
68178;SDS011;54998;42.656;23.382;2023-02-02T03:48:44;5.38;;;2.22;;
68178;SDS011;54998;42.656;23.382;2023-02-02T03:51:19;6.35;;;3.28;;
68178;SDS011;54998;42.656;23.382;2023-02-02T03:58:52;6.40;;;3.47;;
68178;SDS011;54998;42.656;23.382;2023-02-02T04:01:17;5.90;;;2.97;;
68178;SDS011;54998;42.656;23.382;2023-02-02T04:06:16;9.53;;;3.67;;
68178;SDS011;54998;42.656;23.382;2023-02-02T04:08:43;8.73;;;4.15;;
68178;SDS011;54998;42.656;23.382;2023-02-02T04:11:09;10.63;;;3.97;;
68178;SDS011;54998;42.656;23.382;2023-02-02T04:13:34;5.82;;;2.85;;
68178;SDS011;54998;42.656;23.382;2023-02-02T04:16:00;10.27;;;3.38;;
68178;SDS011;54998;42.656;23.382;2023-02-02T04:18:26;4.72;;;2.05;;
68178;SDS011;54998;42.656;23.382;2023-02-02T04:20:55;7.63;;;2.95;;
68178;SDS011;54998;42.656;23.382;2023-02-02T04:23:22;5.78;;;2.50;;
68178;SDS011;54998;42.656;23.382;2023-02-02T04:25:48;7.60;;;3.72;;
68178;SDS011;54998;42.656;23.382;2023-02-02T04:28:14;7.78;;;1.55;;
68178;SDS011;54998;42.656;23.382;2023-02-02T04:30:39;7.43;;;3.17;;
68178;SDS011;54998;42.656;23.382;2023-02-02T04:33:05;9.68;;;3.60;;
68178;SDS011;54998;42.656;23.382;2023-02-02T04:35:30;7.18;;;2.42;;
68178;SDS011;54998;42.656;23.382;2023-02-02T04:37:55;8.15;;;3.00;;
68178;SDS011;54998;42.656;23.382;2023-02-02T04:40:21;5.85;;;2.75;;
68178;SDS011;54998;42.656;23.382;2023-02-02T04:42:46;7.68;;;3.70;;
68178;SDS011;54998;42.656;23.382;2023-02-02T04:45:12;5.90;;;3.28;;
68178;SDS011;54998;42.656;23.382;2023-02-02T04:47:37;6.30;;;2.58;;
68178;SDS011;54998;42.656;23.382;2023-02-02T04:50:02;6.93;;;3.17;;
68178;SDS011;54998;42.656;23.382;2023-02-02T04:52:28;4.82;;;2.72;;
68178;SDS011;54998;42.656;23.382;2023-02-02T04:54:53;4.30;;;2.67;;
68178;SDS011;54998;42.656;23.382;2023-02-02T04:57:19;6.88;;;2.92;;
68178;SDS011;54998;42.656;23.382;2023-02-02T04:59:44;6.18;;;2.85;;
68178;SDS011;54998;42.656;23.382;2023-02-02T05:02:09;7.80;;;3.35;;
68178;SDS011;54998;42.656;23.382;2023-02-02T05:04:35;8.63;;;3.80;;
68178;SDS011;54998;42.656;23.382;2023-02-02T05:07:00;11.27;;;4.07;;
68178;SDS011;54998;42.656;23.382;2023-02-02T05:09:26;9.18;;;4.20;;
68178;SDS011;54998;42.656;23.382;2023-02-02T05:11:51;11.88;;;3.78;;
68178;SDS011;54998;42.656;23.382;2023-02-02T05:14:16;9.55;;;3.63;;
68178;SDS011;54998;42.656;23.382;2023-02-02T05:16:43;7.32;;;3.28;;
68178;SDS011;54998;42.656;23.382;2023-02-02T05:19:08;5.53;;;2.70;;
68178;SDS011;54998;42.656;23.382;2023-02-02T05:21:35;5.78;;;2.90;;
68178;SDS011;54998;42.656;23.382;2023-02-02T05:24:00;8.07;;;4.43;;
68178;SDS011;54998;42.656;23.382;2023-02-02T05:26:27;10.73;;;5.03;;
68178;SDS011;54998;42.656;23.382;2023-02-02T05:28:53;17.52;;;4.88;;
68178;SDS011;54998;42.656;23.382;2023-02-02T05:31:20;15.57;;;5.32;;
68178;SDS011;54998;42.656;23.382;2023-02-02T05:33:46;19.67;;;5.03;;
68178;SDS011;54998;42.656;23.382;2023-02-02T05:36:11;10.23;;;5.18;;
68178;SDS011;54998;42.656;23.382;2023-02-02T05:38:37;12.60;;;6.05;;
68178;SDS011;54998;42.656;23.382;2023-02-02T05:41:02;16.55;;;8.48;;
68178;SDS011;54998;42.656;23.382;2023-02-02T05:43:28;17.15;;;8.43;;
68178;SDS011;54998;42.656;23.382;2023-02-02T05:45:55;19.45;;;9.15;;
68178;SDS011;54998;42.656;23.382;2023-02-02T05:48:20;15.27;;;8.20;;
68178;SDS011;54998;42.656;23.382;2023-02-02T05:50:47;17.85;;;8.25;;
68178;SDS011;54998;42.656;23.382;2023-02-02T05:53:30;15.02;;;8.25;;
68178;SDS011;54998;42.656;23.382;2023-02-02T05:55:56;16.65;;;7.85;;
68178;SDS011;54998;42.656;23.382;2023-02-02T05:58:22;12.93;;;7.45;;
68178;SDS011;54998;42.656;23.382;2023-02-02T06:00:48;17.38;;;8.85;;
68178;SDS011;54998;42.656;23.382;2023-02-02T06:03:13;15.90;;;7.78;;
68178;SDS011;54998;42.656;23.382;2023-02-02T06:05:39;12.50;;;7.07;;
68178;SDS011;54998;42.656;23.382;2023-02-02T06:08:04;16.35;;;7.18;;
68178;SDS011;54998;42.656;23.382;2023-02-02T06:10:30;17.25;;;7.75;;
68178;SDS011;54998;42.656;23.382;2023-02-02T06:12:58;15.52;;;8.50;;
68178;SDS011;54998;42.656;23.382;2023-02-02T06:15:23;15.35;;;8.32;;
68178;SDS011;54998;42.656;23.382;2023-02-02T06:17:49;19.73;;;9.45;;
68178;SDS011;54998;42.656;23.382;2023-02-02T06:20:14;16.42;;;8.98;;
68178;SDS011;54998;42.656;23.382;2023-02-02T06:22:39;20.35;;;7.60;;
68178;SDS011;54998;42.656;23.382;2023-02-02T06:25:06;15.85;;;8.98;;
68178;SDS011;54998;42.656;23.382;2023-02-02T06:27:32;16.13;;;8.20;;
68178;SDS011;54998;42.656;23.382;2023-02-02T06:29:58;24.05;;;7.95;;
68178;SDS011;54998;42.656;23.382;2023-02-02T06:32:23;15.57;;;8.48;;
68178;SDS011;54998;42.656;23.382;2023-02-02T06:34:49;19.73;;;9.77;;
68178;SDS011;54998;42.656;23.382;2023-02-02T06:37:14;16.83;;;8.98;;
68178;SDS011;54998;42.656;23.382;2023-02-02T06:39:39;17.38;;;8.45;;
68178;SDS011;54998;42.656;23.382;2023-02-02T06:42:05;14.02;;;7.18;;
68178;SDS011;54998;42.656;23.382;2023-02-02T06:44:30;19.33;;;9.60;;
68178;SDS011;54998;42.656;23.382;2023-02-02T06:46:56;19.27;;;9.68;;
68178;SDS011;54998;42.656;23.382;2023-02-02T06:49:21;27.05;;;9.23;;
68178;SDS011;54998;42.656;23.382;2023-02-02T06:51:47;22.73;;;9.60;;
68178;SDS011;54998;42.656;23.382;2023-02-02T06:54:12;22.83;;;10.20;;
68178;SDS011;54998;42.656;23.382;2023-02-02T06:56:38;26.40;;;10.70;;
68178;SDS011;54998;42.656;23.382;2023-02-02T06:59:04;30.40;;;11.50;;
68178;SDS011;54998;42.656;23.382;2023-02-02T07:01:30;23.10;;;11.02;;
68178;SDS011;54998;42.656;23.382;2023-02-02T07:03:55;26.30;;;10.20;;
68178;SDS011;54998;42.656;23.382;2023-02-02T07:06:22;22.45;;;9.88;;
68178;SDS011;54998;42.656;23.382;2023-02-02T07:08:50;14.90;;;8.15;;
68178;SDS011;54998;42.656;23.382;2023-02-02T07:11:17;24.80;;;11.32;;
68178;SDS011;54998;42.656;23.382;2023-02-02T07:16:10;24.63;;;10.43;;
68178;SDS011;54998;42.656;23.382;2023-02-02T07:18:36;21.40;;;10.75;;
68178;SDS011;54998;42.656;23.382;2023-02-02T07:21:03;25.60;;;12.15;;
68178;SDS011;54998;42.656;23.382;2023-02-02T07:23:29;24.00;;;11.18;;
68178;SDS011;54998;42.656;23.382;2023-02-02T07:26:04;33.35;;;12.70;;
68178;SDS011;54998;42.656;23.382;2023-02-02T07:28:32;22.17;;;11.13;;
68178;SDS011;54998;42.656;23.382;2023-02-02T07:30:58;26.55;;;10.55;;
68178;SDS011;54998;42.656;23.382;2023-02-02T07:33:24;24.00;;;9.75;;
68178;SDS011;54998;42.656;23.382;2023-02-02T07:35:50;24.02;;;11.25;;
68178;SDS011;54998;42.656;23.382;2023-02-02T07:38:16;24.80;;;12.13;;
68178;SDS011;54998;42.656;23.382;2023-02-02T07:40:41;28.35;;;10.68;;
68178;SDS011;54998;42.656;23.382;2023-02-02T07:43:07;25.45;;;12.32;;
68178;SDS011;54998;42.656;23.382;2023-02-02T07:45:33;29.23;;;10.55;;
68178;SDS011;54998;42.656;23.382;2023-02-02T07:47:59;30.08;;;11.27;;
68178;SDS011;54998;42.656;23.382;2023-02-02T07:50:26;28.17;;;12.18;;
68178;SDS011;54998;42.656;23.382;2023-02-02T07:52:52;27.77;;;11.60;;
68178;SDS011;54998;42.656;23.382;2023-02-02T07:55:18;30.60;;;12.07;;
68178;SDS011;54998;42.656;23.382;2023-02-02T07:57:44;22.33;;;10.65;;
68178;SDS011;54998;42.656;23.382;2023-02-02T08:00:09;33.65;;;11.98;;
68178;SDS011;54998;42.656;23.382;2023-02-02T08:02:35;25.45;;;10.43;;
68178;SDS011;54998;42.656;23.382;2023-02-02T08:05:00;26.70;;;11.70;;
68178;SDS011;54998;42.656;23.382;2023-02-02T08:07:26;28.15;;;12.05;;
68178;SDS011;54998;42.656;23.382;2023-02-02T08:09:51;19.67;;;10.90;;
68178;SDS011;54998;42.656;23.382;2023-02-02T08:12:17;23.42;;;11.18;;
68178;SDS011;54998;42.656;23.382;2023-02-02T08:14:43;23.98;;;11.70;;
68178;SDS011;54998;42.656;23.382;2023-02-02T08:17:08;27.08;;;11.93;;
68178;SDS011;54998;42.656;23.382;2023-02-02T08:19:34;24.52;;;12.80;;
68178;SDS011;54998;42.656;23.382;2023-02-02T08:21:59;24.02;;;11.80;;
68178;SDS011;54998;42.656;23.382;2023-02-02T08:24:24;23.52;;;14.60;;
68178;SDS011;54998;42.656;23.382;2023-02-02T08:26:50;25.90;;;15.30;;
68178;SDS011;54998;42.656;23.382;2023-02-02T08:29:15;21.80;;;12.40;;
68178;SDS011;54998;42.656;23.382;2023-02-02T08:31:41;21.25;;;12.05;;
68178;SDS011;54998;42.656;23.382;2023-02-02T08:34:07;21.30;;;12.30;;
68178;SDS011;54998;42.656;23.382;2023-02-02T08:36:34;21.05;;;12.38;;
68178;SDS011;54998;42.656;23.382;2023-02-02T08:39:03;24.00;;;12.25;;
68178;SDS011;54998;42.656;23.382;2023-02-02T08:41:32;23.85;;;11.90;;
68178;SDS011;54998;42.656;23.382;2023-02-02T08:43:58;22.83;;;13.18;;
68178;SDS011;54998;42.656;23.382;2023-02-02T08:46:24;26.58;;;11.52;;
68178;SDS011;54998;42.656;23.382;2023-02-02T08:48:49;21.88;;;11.98;;
68178;SDS011;54998;42.656;23.382;2023-02-02T08:51:16;19.65;;;11.75;;
68178;SDS011;54998;42.656;23.382;2023-02-02T08:53:43;21.95;;;11.73;;
68178;SDS011;54998;42.656;23.382;2023-02-02T08:56:10;19.98;;;11.48;;
68178;SDS011;54998;42.656;23.382;2023-02-02T08:58:36;16.00;;;9.43;;
68178;SDS011;54998;42.656;23.382;2023-02-02T09:01:10;17.00;;;11.18;;
68178;SDS011;54998;42.656;23.382;2023-02-02T09:03:38;21.33;;;11.20;;
68178;SDS011;54998;42.656;23.382;2023-02-02T09:06:05;20.92;;;10.15;;
68178;SDS011;54998;42.656;23.382;2023-02-02T09:11:01;16.45;;;8.02;;
68178;SDS011;54998;42.656;23.382;2023-02-02T09:13:35;20.73;;;9.10;;
68178;SDS011;54998;42.656;23.382;2023-02-02T09:16:02;18.27;;;9.23;;
68178;SDS011;54998;42.656;23.382;2023-02-02T09:18:29;16.65;;;8.52;;
68178;SDS011;54998;42.656;23.382;2023-02-02T09:20:57;17.83;;;9.02;;
68178;SDS011;54998;42.656;23.382;2023-02-02T09:23:24;17.95;;;10.40;;
68178;SDS011;54998;42.656;23.382;2023-02-02T09:25:50;27.38;;;9.88;;
68178;SDS011;54998;42.656;23.382;2023-02-02T09:28:15;18.40;;;9.25;;
68178;SDS011;54998;42.656;23.382;2023-02-02T09:30:41;20.98;;;9.10;;
68178;SDS011;54998;42.656;23.382;2023-02-02T09:33:06;19.17;;;9.07;;
68178;SDS011;54998;42.656;23.382;2023-02-02T09:35:31;25.02;;;10.90;;
68178;SDS011;54998;42.656;23.382;2023-02-02T09:37:57;22.83;;;10.38;;
68178;SDS011;54998;42.656;23.382;2023-02-02T09:40:22;21.98;;;10.75;;
68178;SDS011;54998;42.656;23.382;2023-02-02T09:50:29;17.63;;;9.27;;
68178;SDS011;54998;42.656;23.382;2023-02-02T09:55:34;15.30;;;7.90;;
68178;SDS011;54998;42.656;23.382;2023-02-02T10:00:51;17.88;;;8.50;;
68178;SDS011;54998;42.656;23.382;2023-02-02T10:03:24;16.50;;;8.73;;
68178;SDS011;54998;42.656;23.382;2023-02-02T10:08:47;12.70;;;7.40;;
68178;SDS011;54998;42.656;23.382;2023-02-02T10:11:25;15.15;;;8.25;;
68178;SDS011;54998;42.656;23.382;2023-02-02T10:13:55;15.25;;;8.15;;
68178;SDS011;54998;42.656;23.382;2023-02-02T10:16:26;10.73;;;5.20;;
68178;SDS011;54998;42.656;23.382;2023-02-02T10:18:58;9.25;;;5.03;;
68178;SDS011;54998;42.656;23.382;2023-02-02T10:21:37;13.07;;;7.72;;
68178;SDS011;54998;42.656;23.382;2023-02-02T10:24:14;15.45;;;7.85;;
68178;SDS011;54998;42.656;23.382;2023-02-02T10:26:48;14.80;;;8.23;;
68178;SDS011;54998;42.656;23.382;2023-02-02T10:29:47;13.15;;;7.40;;
68178;SDS011;54998;42.656;23.382;2023-02-02T10:32:25;13.27;;;7.25;;
68178;SDS011;54998;42.656;23.382;2023-02-02T10:37:47;11.18;;;4.90;;
68178;SDS011;54998;42.656;23.382;2023-02-02T10:40:39;11.18;;;5.28;;
68178;SDS011;54998;42.656;23.382;2023-02-02T10:54:46;4.30;;;2.22;;
68178;SDS011;54998;42.656;23.382;2023-02-02T11:02:48;3.42;;;2.00;;
68178;SDS011;54998;42.656;23.382;2023-02-02T11:05:18;4.05;;;1.80;;
68178;SDS011;54998;42.656;23.382;2023-02-02T11:08:09;6.25;;;2.13;;
68178;SDS011;54998;42.656;23.382;2023-02-02T11:13:02;6.32;;;2.25;;
68178;SDS011;54998;42.656;23.382;2023-02-02T11:15:31;5.18;;;1.70;;
68178;SDS011;54998;42.656;23.382;2023-02-02T11:18:11;3.83;;;1.80;;
68178;SDS011;54998;42.656;23.382;2023-02-02T11:20:39;3.58;;;1.90;;
68178;SDS011;54998;42.656;23.382;2023-02-02T11:23:05;4.75;;;2.15;;
68178;SDS011;54998;42.656;23.382;2023-02-02T11:25:37;6.18;;;2.10;;
68178;SDS011;54998;42.656;23.382;2023-02-02T11:28:25;4.57;;;2.30;;
68178;SDS011;54998;42.656;23.382;2023-02-02T11:30:54;2.40;;;1.13;;
68178;SDS011;54998;42.656;23.382;2023-02-02T11:33:30;3.85;;;1.80;;
68178;SDS011;54998;42.656;23.382;2023-02-02T11:38:27;3.63;;;1.98;;
68178;SDS011;54998;42.656;23.382;2023-02-02T11:43:34;3.55;;;1.48;;
68178;SDS011;54998;42.656;23.382;2023-02-02T11:46:06;2.70;;;1.60;;
68178;SDS011;54998;42.656;23.382;2023-02-02T11:48:46;4.38;;;2.08;;
68178;SDS011;54998;42.656;23.382;2023-02-02T11:51:23;4.82;;;2.17;;
68178;SDS011;54998;42.656;23.382;2023-02-02T11:53:50;3.42;;;1.75;;
68178;SDS011;54998;42.656;23.382;2023-02-02T11:56:30;3.72;;;1.38;;
68178;SDS011;54998;42.656;23.382;2023-02-02T11:58:57;3.47;;;1.40;;
68178;SDS011;54998;42.656;23.382;2023-02-02T12:03:53;4.13;;;2.20;;
68178;SDS011;54998;42.656;23.382;2023-02-02T12:06:27;5.05;;;1.98;;
68178;SDS011;54998;42.656;23.382;2023-02-02T12:09:09;4.25;;;2.03;;
68178;SDS011;54998;42.656;23.382;2023-02-02T12:11:39;5.88;;;2.42;;
68178;SDS011;54998;42.656;23.382;2023-02-02T12:20:01;5.53;;;1.55;;
68178;SDS011;54998;42.656;23.382;2023-02-02T12:22:40;2.67;;;1.63;;
68178;SDS011;54998;42.656;23.382;2023-02-02T12:30:45;3.10;;;1.90;;
68178;SDS011;54998;42.656;23.382;2023-02-02T12:33:20;2.95;;;1.88;;
68178;SDS011;54998;42.656;23.382;2023-02-02T12:44:03;1.15;;;1.05;;
68178;SDS011;54998;42.656;23.382;2023-02-02T12:46:58;2.28;;;1.52;;
68178;SDS011;54998;42.656;23.382;2023-02-02T12:53:04;1.65;;;1.08;;
68178;SDS011;54998;42.656;23.382;2023-02-02T12:55:38;2.35;;;1.40;;
68178;SDS011;54998;42.656;23.382;2023-02-02T13:03:20;2.72;;;1.80;;
68178;SDS011;54998;42.656;23.382;2023-02-02T13:08:27;5.60;;;1.70;;
68178;SDS011;54998;42.656;23.382;2023-02-02T13:11:17;3.38;;;1.70;;
68178;SDS011;54998;42.656;23.382;2023-02-02T13:13:58;1.52;;;0.77;;
68178;SDS011;54998;42.656;23.382;2023-02-02T13:16:56;2.58;;;1.70;;
68178;SDS011;54998;42.656;23.382;2023-02-02T13:19:34;2.83;;;1.90;;
68178;SDS011;54998;42.656;23.382;2023-02-02T13:22:03;3.30;;;1.80;;
68178;SDS011;54998;42.656;23.382;2023-02-02T13:24:32;2.55;;;1.73;;
68178;SDS011;54998;42.656;23.382;2023-02-02T13:27:01;2.67;;;1.60;;
68178;SDS011;54998;42.656;23.382;2023-02-02T13:34:43;3.60;;;1.73;;
68178;SDS011;54998;42.656;23.382;2023-02-02T13:39:48;2.80;;;1.80;;
68178;SDS011;54998;42.656;23.382;2023-02-02T13:42:31;3.78;;;2.40;;
68178;SDS011;54998;42.656;23.382;2023-02-02T13:48:14;4.22;;;2.30;;
68178;SDS011;54998;42.656;23.382;2023-02-02T13:51:28;9.90;;;1.83;;
68178;SDS011;54998;42.656;23.382;2023-02-02T13:56:37;1.85;;;1.48;;
68178;SDS011;54998;42.656;23.382;2023-02-02T14:01:43;2.83;;;1.63;;
68178;SDS011;54998;42.656;23.382;2023-02-02T14:04:23;3.05;;;1.40;;
68178;SDS011;54998;42.656;23.382;2023-02-02T14:06:53;2.30;;;1.65;;
68178;SDS011;54998;42.656;23.382;2023-02-02T14:09:30;3.80;;;1.90;;
68178;SDS011;54998;42.656;23.382;2023-02-02T14:12:00;4.13;;;2.35;;
68178;SDS011;54998;42.656;23.382;2023-02-02T14:14:31;2.45;;;1.88;;
68178;SDS011;54998;42.656;23.382;2023-02-02T14:24:45;3.42;;;1.92;;
68178;SDS011;54998;42.656;23.382;2023-02-02T14:35:00;3.00;;;1.40;;
68178;SDS011;54998;42.656;23.382;2023-02-02T14:37:54;3.08;;;0.93;;
68178;SDS011;54998;42.656;23.382;2023-02-02T14:48:38;3.53;;;1.95;;
68178;SDS011;54998;42.656;23.382;2023-02-02T14:51:18;4.70;;;2.25;;
68178;SDS011;54998;42.656;23.382;2023-02-02T14:53:55;3.75;;;2.50;;
68178;SDS011;54998;42.656;23.382;2023-02-02T14:56:42;2.92;;;2.10;;
68178;SDS011;54998;42.656;23.382;2023-02-02T15:04:38;6.20;;;3.97;;
68178;SDS011;54998;42.656;23.382;2023-02-02T15:09:48;7.05;;;4.40;;
68178;SDS011;54998;42.656;23.382;2023-02-02T15:20:11;6.50;;;3.00;;
68178;SDS011;54998;42.656;23.382;2023-02-02T15:28:24;3.03;;;1.95;;
68178;SDS011;54998;42.656;23.382;2023-02-02T15:33:56;3.25;;;1.98;;
68178;SDS011;54998;42.656;23.382;2023-02-02T15:36:29;2.70;;;1.80;;
68178;SDS011;54998;42.656;23.382;2023-02-02T15:38:58;2.13;;;1.00;;
68178;SDS011;54998;42.656;23.382;2023-02-02T15:43:56;2.92;;;1.80;;
68178;SDS011;54998;42.656;23.382;2023-02-02T15:46:25;4.45;;;2.30;;
68178;SDS011;54998;42.656;23.382;2023-02-02T15:51:46;6.88;;;3.00;;
68178;SDS011;54998;42.656;23.382;2023-02-02T15:54:24;3.50;;;2.17;;
68178;SDS011;54998;42.656;23.382;2023-02-02T15:56:53;3.08;;;2.25;;
68178;SDS011;54998;42.656;23.382;2023-02-02T15:59:22;3.72;;;2.55;;
68178;SDS011;54998;42.656;23.382;2023-02-02T16:01:51;2.65;;;1.75;;
68178;SDS011;54998;42.656;23.382;2023-02-02T16:04:41;2.65;;;1.60;;
68178;SDS011;54998;42.656;23.382;2023-02-02T16:07:21;1.73;;;1.33;;
68178;SDS011;54998;42.656;23.382;2023-02-02T16:09:51;3.00;;;1.45;;
68178;SDS011;54998;42.656;23.382;2023-02-02T16:12:18;2.75;;;1.60;;
68178;SDS011;54998;42.656;23.382;2023-02-02T16:14:46;3.80;;;1.67;;
68178;SDS011;54998;42.656;23.382;2023-02-02T16:19:48;2.38;;;1.30;;
68178;SDS011;54998;42.656;23.382;2023-02-02T16:22:16;1.90;;;1.55;;
68178;SDS011;54998;42.656;23.382;2023-02-02T16:24:50;2.70;;;1.20;;
68178;SDS011;54998;42.656;23.382;2023-02-02T16:27:21;1.88;;;1.10;;
68178;SDS011;54998;42.656;23.382;2023-02-02T16:29:49;2.30;;;1.00;;
68178;SDS011;54998;42.656;23.382;2023-02-02T16:32:25;2.25;;;1.33;;
68178;SDS011;54998;42.656;23.382;2023-02-02T16:34:52;1.55;;;0.90;;
68178;SDS011;54998;42.656;23.382;2023-02-02T16:37:25;2.20;;;1.63;;
68178;SDS011;54998;42.656;23.382;2023-02-02T16:40:13;2.45;;;1.17;;
68178;SDS011;54998;42.656;23.382;2023-02-02T16:42:42;2.78;;;1.67;;
68178;SDS011;54998;42.656;23.382;2023-02-02T16:48:25;5.00;;;2.58;;
68178;SDS011;54998;42.656;23.382;2023-02-02T16:53:29;4.10;;;2.20;;
68178;SDS011;54998;42.656;23.382;2023-02-02T16:55:55;2.92;;;1.83;;
68178;SDS011;54998;42.656;23.382;2023-02-02T16:58:22;4.57;;;2.55;;
68178;SDS011;54998;42.656;23.382;2023-02-02T17:01:22;4.35;;;2.40;;
68178;SDS011;54998;42.656;23.382;2023-02-02T17:03:50;3.42;;;2.50;;
68178;SDS011;54998;42.656;23.382;2023-02-02T17:06:29;4.10;;;2.17;;
68178;SDS011;54998;42.656;23.382;2023-02-02T17:08:56;5.03;;;2.72;;
68178;SDS011;54998;42.656;23.382;2023-02-02T17:11:38;2.40;;;1.80;;
68178;SDS011;54998;42.656;23.382;2023-02-02T17:14:17;3.80;;;2.20;;
68178;SDS011;54998;42.656;23.382;2023-02-02T17:16:44;3.90;;;2.50;;
68178;SDS011;54998;42.656;23.382;2023-02-02T17:19:09;3.90;;;2.25;;
68178;SDS011;54998;42.656;23.382;2023-02-02T17:21:35;2.97;;;1.88;;
68178;SDS011;54998;42.656;23.382;2023-02-02T17:24:00;3.22;;;2.40;;
68178;SDS011;54998;42.656;23.382;2023-02-02T17:26:26;5.68;;;2.88;;
68178;SDS011;54998;42.656;23.382;2023-02-02T17:28:53;3.38;;;1.98;;
68178;SDS011;54998;42.656;23.382;2023-02-02T17:31:20;3.72;;;2.17;;
68178;SDS011;54998;42.656;23.382;2023-02-02T17:33:45;4.03;;;2.50;;
68178;SDS011;54998;42.656;23.382;2023-02-02T17:36:11;4.32;;;2.55;;
68178;SDS011;54998;42.656;23.382;2023-02-02T17:38:37;3.28;;;1.98;;
68178;SDS011;54998;42.656;23.382;2023-02-02T17:41:03;3.25;;;1.75;;
68178;SDS011;54998;42.656;23.382;2023-02-02T17:43:29;3.42;;;2.60;;
68178;SDS011;54998;42.656;23.382;2023-02-02T17:45:55;3.42;;;2.38;;
68178;SDS011;54998;42.656;23.382;2023-02-02T17:48:21;3.55;;;2.30;;
68178;SDS011;54998;42.656;23.382;2023-02-02T17:50:46;5.50;;;2.90;;
68178;SDS011;54998;42.656;23.382;2023-02-02T17:53:13;2.55;;;1.90;;
68178;SDS011;54998;42.656;23.382;2023-02-02T17:55:41;3.33;;;1.80;;